Terminal Aerodrome Forecast
Issued by NWS Mt. Holly, NJ

Home | Current Version | Previous Version | Text Only | Print | Product List | Glossary On
Versions: 1 2 3 4 5 6 7 8 9 10 11 12 13 14
000
FTUS41 KPHI 301130
TAFACY
TAF
KACY 301130Z 3012/3112 21005KT P6SM FEW050 SCT250
     FM301500 23008KT P6SM SCT050 BKN250
     FM310600 23005KT P6SM BKN250=

USA.gov is the U.S. government's official web portal to all federal, state and local government web resources and services.